createdAt,value
2018-03-29T00:01:08.349Z,10.57
2018-03-29T00:03:36.702Z,12.05
2018-03-29T00:06:05.338Z,11.57
2018-03-29T00:08:33.648Z,13.52
2018-03-29T00:11:01.938Z,13.50
2018-03-29T00:13:30.347Z,12.23
2018-03-29T00:16:00.106Z,14.70
2018-03-29T00:18:29.367Z,14.00
2018-03-29T00:20:57.749Z,13.23
2018-03-29T00:23:25.999Z,13.60
2018-03-29T00:25:55.115Z,15.80
2018-03-29T00:28:23.645Z,13.33
2018-03-29T00:30:52.023Z,14.13
2018-03-29T00:33:20.348Z,15.37
2018-03-29T00:35:48.661Z,15.90
2018-03-29T00:38:16.921Z,15.90
2018-03-29T00:40:45.535Z,20.17
2018-03-29T00:43:13.844Z,20.20
2018-03-29T00:45:43.077Z,22.13
2018-03-29T00:48:12.503Z,23.33
2018-03-29T00:50:40.747Z,21.50
2018-03-29T00:53:26.887Z,22.83
2018-03-29T00:55:55.566Z,29.20
2018-03-29T00:58:23.958Z,24.00
2018-03-29T01:00:52.226Z,21.83
2018-03-29T01:03:20.483Z,22.03
2018-03-29T01:05:49.888Z,20.17
2018-03-29T01:08:18.685Z,21.13
2018-03-29T01:10:47.179Z,22.33
2018-03-29T01:13:15.545Z,22.47
2018-03-29T01:15:43.838Z,21.20
2018-03-29T01:18:12.343Z,24.65
2018-03-29T01:20:41.374Z,24.03
2018-03-29T01:23:09.817Z,21.83
2018-03-29T01:25:38.426Z,20.77
2018-03-29T01:28:06.956Z,22.17
2018-03-29T01:30:35.249Z,20.60
2018-03-29T01:33:04.336Z,18.53
2018-03-29T01:35:32.653Z,21.13
2018-03-29T01:38:01.214Z,19.83
2018-03-29T01:40:29.743Z,20.83
2018-03-29T01:42:58.025Z,20.93
2018-03-29T01:45:26.378Z,20.03
2018-03-29T01:47:54.728Z,21.10
2018-03-29T01:50:23.023Z,19.52
2018-03-29T01:52:51.342Z,20.55
2018-03-29T01:55:19.618Z,23.33
2018-03-29T01:57:47.959Z,19.37
2018-03-29T02:00:16.304Z,19.42
2018-03-29T02:02:44.725Z,19.60
2018-03-29T02:05:13.504Z,18.27
2018-03-29T02:07:41.885Z,21.27
2018-03-29T02:10:10.932Z,20.20
2018-03-29T02:12:40.008Z,20.20
2018-03-29T02:15:09.075Z,19.30
2018-03-29T02:17:37.416Z,22.57
2018-03-29T02:20:05.874Z,18.37
2018-03-29T02:22:34.134Z,19.55
2018-03-29T02:25:02.469Z,16.73
2018-03-29T02:27:30.773Z,16.60
2018-03-29T02:29:59.205Z,17.17
2018-03-29T02:32:28.399Z,17.77
2018-03-29T02:34:57.656Z,20.27
2018-03-29T02:37:25.926Z,15.80
2018-03-29T02:39:54.283Z,16.33
2018-03-29T02:42:22.783Z,18.57
2018-03-29T02:44:51.163Z,19.40
2018-03-29T02:47:19.454Z,16.70
2018-03-29T02:49:47.710Z,18.40
2018-03-29T02:52:16.104Z,18.23
2018-03-29T02:54:44.372Z,15.27
2018-03-29T02:57:12.794Z,16.83
2018-03-29T02:59:41.455Z,16.50
2018-03-29T03:02:09.900Z,13.90
2018-03-29T03:04:39.974Z,13.75
2018-03-29T03:07:10.275Z,13.70
2018-03-29T03:09:38.572Z,14.00
2018-03-29T03:12:07.598Z,14.43
2018-03-29T03:14:35.955Z,14.27
2018-03-29T03:17:04.286Z,15.50
2018-03-29T03:19:32.918Z,14.77
2018-03-29T03:22:01.492Z,15.80
2018-03-29T03:24:30.659Z,14.63
2018-03-29T03:26:59.048Z,13.80
2018-03-29T03:29:27.404Z,14.63
2018-03-29T03:31:55.703Z,13.23
2018-03-29T03:34:23.983Z,16.90
2018-03-29T03:36:53.084Z,16.83
2018-03-29T03:39:22.124Z,12.27
2018-03-29T03:41:50.418Z,14.50
2018-03-29T03:44:18.897Z,14.53
2018-03-29T03:46:47.193Z,15.37
2018-03-29T03:49:15.554Z,14.00
2018-03-29T03:51:43.970Z,15.53
2018-03-29T03:54:13.114Z,13.77
2018-03-29T03:56:41.479Z,14.17
2018-03-29T03:59:09.959Z,19.42
2018-03-29T04:01:38.407Z,17.30
2018-03-29T04:04:07.460Z,23.92
2018-03-29T04:06:35.982Z,23.27
2018-03-29T04:09:05.268Z,25.43
2018-03-29T04:11:33.595Z,28.03
2018-03-29T04:14:02.340Z,25.70
2018-03-29T04:16:30.627Z,28.27
2018-03-29T04:18:58.922Z,27.23
2018-03-29T04:21:27.252Z,27.85
2018-03-29T04:23:55.635Z,25.58
2018-03-29T04:26:23.925Z,26.37
2018-03-29T04:28:52.993Z,34.10
2018-03-29T04:31:21.245Z,29.87
2018-03-29T04:33:49.513Z,25.30
2018-03-29T04:36:17.822Z,28.90
2018-03-29T04:38:46.097Z,28.07
2018-03-29T04:41:14.418Z,26.67
2018-03-29T04:43:42.738Z,30.60
2018-03-29T04:46:11.160Z,29.23
2018-03-29T04:48:40.245Z,30.05
2018-03-29T04:51:09.339Z,26.77
2018-03-29T04:53:37.637Z,30.73
2018-03-29T04:56:05.952Z,27.40
2018-03-29T04:58:34.250Z,28.52
2018-03-29T05:01:03.282Z,30.30
2018-03-29T05:03:32.353Z,28.60
2018-03-29T05:06:01.358Z,29.83
2018-03-29T05:08:29.804Z,26.57
2018-03-29T05:10:58.088Z,26.60
2018-03-29T05:13:26.368Z,28.13
2018-03-29T05:15:54.647Z,26.90
2018-03-29T05:18:22.978Z,29.97
2018-03-29T05:20:51.239Z,26.80
2018-03-29T05:23:19.619Z,25.10
2018-03-29T05:25:47.988Z,23.65
2018-03-29T05:28:17.032Z,22.03
2018-03-29T05:30:45.531Z,25.87
2018-03-29T05:33:14.002Z,23.37
2018-03-29T05:35:42.308Z,23.83
2018-03-29T05:38:12.628Z,27.00
2018-03-29T05:40:41.850Z,22.62
2018-03-29T05:43:10.130Z,26.35
2018-03-29T05:45:38.448Z,23.50
2018-03-29T05:48:06.776Z,26.97
2018-03-29T05:50:35.050Z,24.50
2018-03-29T05:53:03.374Z,16.60
2018-03-29T05:55:31.794Z,16.93
2018-03-29T05:58:01.088Z,16.47
2018-03-29T06:00:30.294Z,20.75
2018-03-29T06:02:59.407Z,23.03
2018-03-29T06:05:29.074Z,21.37
2018-03-29T06:07:58.500Z,20.90
2018-03-29T06:10:28.719Z,22.90
2018-03-29T06:12:58.898Z,25.30
2018-03-29T06:15:33.469Z,29.33
2018-03-29T06:18:02.698Z,29.07
2018-03-29T06:20:31.203Z,30.37
2018-03-29T06:23:00.349Z,27.13
2018-03-29T06:25:28.743Z,26.80
2018-03-29T06:27:57.254Z,27.63
2018-03-29T06:30:25.639Z,30.47
2018-03-29T06:32:53.899Z,33.80
2018-03-29T06:35:22.280Z,30.77
2018-03-29T06:37:50.889Z,35.10
2018-03-29T06:40:19.303Z,31.97
2018-03-29T06:42:47.699Z,38.73
2018-03-29T06:45:16.424Z,33.23
2018-03-29T06:47:45.539Z,32.63
2018-03-29T06:50:13.991Z,33.53
2018-03-29T06:52:42.450Z,32.97
2018-03-29T06:55:10.790Z,36.53
2018-03-29T06:57:40.004Z,34.20
2018-03-29T07:00:08.521Z,34.93
2018-03-29T07:02:37.371Z,32.47
2018-03-29T07:05:06.674Z,33.70
2018-03-29T07:07:35.001Z,33.42
2018-03-29T07:10:03.531Z,34.37
2018-03-29T07:12:32.038Z,37.20
2018-03-29T07:15:00.510Z,35.30
2018-03-29T07:17:28.847Z,38.10
2018-03-29T07:19:57.944Z,35.85
2018-03-29T07:22:26.324Z,35.07
2018-03-29T07:24:54.619Z,36.47
2018-03-29T07:27:23.818Z,35.17
2018-03-29T07:29:53.576Z,35.00
2018-03-29T07:32:22.345Z,33.67
2018-03-29T07:34:50.915Z,37.27
2018-03-29T07:37:19.534Z,45.40
2018-03-29T07:39:47.851Z,38.70
2018-03-29T07:42:17.040Z,37.73
2018-03-29T07:44:46.270Z,34.97
2018-03-29T07:47:14.531Z,38.53
2018-03-29T07:49:43.775Z,36.35
2018-03-29T07:52:12.141Z,36.67
2018-03-29T07:54:40.492Z,39.70
2018-03-29T07:57:08.888Z,40.63
2018-03-29T07:59:37.200Z,37.97
2018-03-29T08:02:06.402Z,42.92
2018-03-29T08:04:37.312Z,43.97
2018-03-29T08:07:05.738Z,42.80
2018-03-29T08:09:34.806Z,46.27
2018-03-29T08:12:03.122Z,42.33
2018-03-29T08:14:32.155Z,42.13
2018-03-29T08:17:00.504Z,40.83
2018-03-29T08:19:28.810Z,42.90
2018-03-29T08:21:57.257Z,41.87
2018-03-29T08:24:25.571Z,39.97
2018-03-29T08:26:54.076Z,36.70
2018-03-29T08:29:22.486Z,31.67
2018-03-29T08:31:51.585Z,29.77
2018-03-29T08:34:19.901Z,24.70
2018-03-29T08:36:48.297Z,21.50
2018-03-29T08:39:16.756Z,18.00
2018-03-29T08:41:45.195Z,22.37
2018-03-29T08:44:13.714Z,17.77
2018-03-29T08:46:42.055Z,18.02
2018-03-29T08:49:11.275Z,21.42
2018-03-29T08:51:39.612Z,17.97
2018-03-29T08:54:08.009Z,15.07
2018-03-29T08:56:36.420Z,17.30
2018-03-29T08:59:04.895Z,18.23
2018-03-29T09:01:33.605Z,20.37
2018-03-29T09:04:01.890Z,20.17
2018-03-29T09:06:30.194Z,22.57
2018-03-29T09:08:59.275Z,23.40
2018-03-29T09:11:27.559Z,27.10
2018-03-29T09:13:56.727Z,28.37
2018-03-29T09:16:25.160Z,24.70
2018-03-29T09:18:53.466Z,30.03
2018-03-29T09:21:21.803Z,30.07
2018-03-29T09:23:50.986Z,31.30
2018-03-29T09:26:19.366Z,33.15
2018-03-29T09:28:47.708Z,33.83
2018-03-29T09:31:16.057Z,34.73
2018-03-29T09:33:44.417Z,33.40
2018-03-29T09:36:12.852Z,37.33
2018-03-29T09:38:41.131Z,40.10
2018-03-29T09:41:09.491Z,35.03
2018-03-29T09:43:37.820Z,36.10
2018-03-29T09:46:06.912Z,35.17
2018-03-29T09:48:36.100Z,35.10
2018-03-29T09:51:04.495Z,38.47
2018-03-29T09:53:33.687Z,40.07
2018-03-29T09:56:02.794Z,39.83
2018-03-29T09:58:32.014Z,37.43
2018-03-29T10:01:05.949Z,34.28
2018-03-29T10:03:45.045Z,38.70
2018-03-29T10:06:33.283Z,40.40
2018-03-29T10:09:01.653Z,43.30
2018-03-29T10:11:30.105Z,42.73
2018-03-29T10:14:00.390Z,50.87
2018-03-29T10:16:28.717Z,45.17
2018-03-29T10:18:57.878Z,47.03
2018-03-29T10:21:26.329Z,51.00
2018-03-29T10:23:54.647Z,51.63
2018-03-29T10:26:22.980Z,47.38
2018-03-29T10:28:51.330Z,49.00
2018-03-29T10:31:20.403Z,45.93
2018-03-29T10:33:49.530Z,43.80
2018-03-29T10:38:52.665Z,48.03
2018-03-29T10:41:20.981Z,54.38
2018-03-29T10:43:49.433Z,51.73
2018-03-29T10:46:17.801Z,49.03
2018-03-29T10:48:46.166Z,49.50
2018-03-29T10:51:16.078Z,47.35
2018-03-29T10:53:44.758Z,46.92
2018-03-29T10:56:14.079Z,43.60
2018-03-29T10:58:42.655Z,46.30
2018-03-29T11:01:11.316Z,46.50
2018-03-29T11:03:40.107Z,44.50
2018-03-29T11:06:08.504Z,43.73
2018-03-29T11:08:36.895Z,42.40
2018-03-29T11:11:05.231Z,40.40
2018-03-29T11:13:34.463Z,37.47
2018-03-29T11:16:02.835Z,32.13
2018-03-29T11:18:31.435Z,32.80
2018-03-29T11:20:59.761Z,30.90
2018-03-29T11:23:29.185Z,31.83
2018-03-29T11:25:57.770Z,29.23
2018-03-29T11:28:26.332Z,27.77
2018-03-29T11:30:55.661Z,25.33
2018-03-29T11:33:24.018Z,27.13
2018-03-29T11:35:52.625Z,23.23
2018-03-29T11:38:20.926Z,23.83
2018-03-29T11:40:49.390Z,22.15
2018-03-29T11:43:17.890Z,22.23
2018-03-29T11:45:46.248Z,20.25
2018-03-29T11:48:14.565Z,19.77
2018-03-29T11:50:42.980Z,18.50
2018-03-29T11:53:11.285Z,24.07
2018-03-29T11:55:39.591Z,20.70
2018-03-29T11:58:08.132Z,18.57
2018-03-29T12:00:36.478Z,17.58
2018-03-29T12:03:05.746Z,15.53
2018-03-29T12:05:34.048Z,19.10
2018-03-29T12:08:03.200Z,17.33
2018-03-29T12:10:31.552Z,18.13
2018-03-29T12:12:59.942Z,15.60
2018-03-29T12:15:28.327Z,17.80
2018-03-29T12:17:56.824Z,19.75
2018-03-29T12:20:25.192Z,16.70
2018-03-29T12:22:53.526Z,16.37
2018-03-29T12:25:23.765Z,17.35
2018-03-29T12:27:52.246Z,18.13
2018-03-29T12:30:20.645Z,15.43
2018-03-29T12:32:49.197Z,17.03
2018-03-29T12:35:17.545Z,17.70
2018-03-29T12:37:46.663Z,17.20
2018-03-29T12:40:15.786Z,15.38
2018-03-29T12:42:44.482Z,19.50
2018-03-29T12:45:12.935Z,19.60
2018-03-29T12:47:41.246Z,16.80
2018-03-29T12:50:09.595Z,16.47
2018-03-29T12:52:38.236Z,15.90
2018-03-29T12:55:24.066Z,18.07
2018-03-29T12:58:07.161Z,16.03
2018-03-29T13:00:35.472Z,17.30
2018-03-29T13:03:03.891Z,14.00
2018-03-29T13:05:32.419Z,14.53
2018-03-29T13:08:00.971Z,12.80
2018-03-29T13:10:30.073Z,3.80
2018-03-29T13:12:59.386Z,3.40
2018-03-29T13:15:28.636Z,3.47
2018-03-29T13:17:56.967Z,4.05
2018-03-29T13:20:26.074Z,5.67
2018-03-29T13:22:54.409Z,7.50
2018-03-29T13:25:23.578Z,8.13
2018-03-29T13:27:52.080Z,10.57
2018-03-29T13:30:20.515Z,8.00
2018-03-29T13:32:48.797Z,9.83
2018-03-29T13:35:17.150Z,7.07
2018-03-29T13:37:45.649Z,12.57
2018-03-29T13:40:13.979Z,7.57
2018-03-29T13:42:42.367Z,5.93
2018-03-29T13:45:10.750Z,5.60
2018-03-29T13:47:39.826Z,5.00
2018-03-29T13:50:08.150Z,5.20
2018-03-29T13:52:36.451Z,5.47
2018-03-29T13:55:04.745Z,5.50
2018-03-29T13:57:33.211Z,5.47
2018-03-29T14:00:02.002Z,4.05
2018-03-29T14:02:30.366Z,4.00
2018-03-29T14:04:58.739Z,3.40
2018-03-29T14:07:27.229Z,4.00
2018-03-29T14:09:55.544Z,4.30
2018-03-29T14:12:24.104Z,4.43
2018-03-29T14:14:52.493Z,5.03
2018-03-29T14:17:20.850Z,4.17
2018-03-29T14:19:49.192Z,6.47
2018-03-29T14:22:17.644Z,7.77
2018-03-29T14:24:45.977Z,5.57
2018-03-29T14:27:14.408Z,5.47
2018-03-29T14:29:44.661Z,7.63
2018-03-29T14:32:13.324Z,8.87
2018-03-29T14:34:41.836Z,6.47
2018-03-29T14:37:10.408Z,6.23
2018-03-29T14:39:38.724Z,7.33
2018-03-29T14:42:08.125Z,5.47
2018-03-29T14:44:36.757Z,5.77
2018-03-29T14:47:06.132Z,10.05
2018-03-29T14:49:35.663Z,8.27
2018-03-29T14:52:04.012Z,7.60
2018-03-29T14:54:32.353Z,6.68
2018-03-29T14:57:00.966Z,7.47
2018-03-29T14:59:29.308Z,6.70
2018-03-29T15:01:58.117Z,7.83
2018-03-29T15:04:26.413Z,8.87
2018-03-29T15:06:54.860Z,12.77
2018-03-29T15:09:23.605Z,7.03
2018-03-29T15:11:52.777Z,9.30
2018-03-29T15:14:21.233Z,8.43
2018-03-29T15:16:49.639Z,7.65
2018-03-29T15:19:18.049Z,5.97
2018-03-29T15:21:46.659Z,5.37
2018-03-29T15:24:14.943Z,5.27
2018-03-29T15:26:43.276Z,5.70
2018-03-29T15:29:12.473Z,6.40
2018-03-29T15:31:41.612Z,5.30
2018-03-29T15:34:11.846Z,5.30
2018-03-29T15:36:40.598Z,6.57
2018-03-29T15:39:09.065Z,3.53
2018-03-29T15:41:38.192Z,4.83
2018-03-29T15:44:06.708Z,4.60
2018-03-29T15:46:35.102Z,4.57
2018-03-29T15:49:03.431Z,3.80
2018-03-29T15:51:31.792Z,4.28
2018-03-29T15:54:00.211Z,5.33
2018-03-29T15:56:28.670Z,6.17
2018-03-29T15:58:57.276Z,4.90
2018-03-29T16:01:25.647Z,4.73
2018-03-29T16:03:53.990Z,6.65
2018-03-29T16:06:22.325Z,5.50
2018-03-29T16:08:50.759Z,6.07
2018-03-29T16:11:20.218Z,6.03
2018-03-29T16:13:49.442Z,6.60
2018-03-29T16:16:18.054Z,4.67
2018-03-29T16:18:46.449Z,4.95
2018-03-29T16:21:14.974Z,5.13
2018-03-29T16:23:44.575Z,7.00
2018-03-29T16:26:14.185Z,7.60
2018-03-29T16:28:43.291Z,5.77
2018-03-29T16:31:11.614Z,6.73
2018-03-29T16:33:40.142Z,4.97
2018-03-29T16:36:09.775Z,5.25
2018-03-29T16:38:38.151Z,6.23
2018-03-29T16:41:06.524Z,5.35
2018-03-29T16:43:34.945Z,6.57
2018-03-29T16:46:04.284Z,4.75
2018-03-29T16:48:33.491Z,6.03
2018-03-29T16:51:02.841Z,7.93
2018-03-29T16:53:31.285Z,6.53
2018-03-29T16:55:59.776Z,5.93
2018-03-29T16:58:28.433Z,6.50
2018-03-29T17:00:57.985Z,6.17
2018-03-29T17:03:27.488Z,5.27
2018-03-29T17:05:56.174Z,6.95
2018-03-29T17:08:26.328Z,6.93
2018-03-29T17:10:55.115Z,6.47
2018-03-29T17:13:24.274Z,9.07
2018-03-29T17:15:52.965Z,7.70
2018-03-29T17:18:21.461Z,8.00
2018-03-29T17:20:50.354Z,6.17
2018-03-29T17:23:18.917Z,8.50
2018-03-29T17:25:47.418Z,6.93
2018-03-29T17:28:16.571Z,9.63
2018-03-29T17:30:45.166Z,8.70
2018-03-29T17:33:13.478Z,5.27
2018-03-29T17:35:41.900Z,8.43
2018-03-29T17:38:10.240Z,7.30
2018-03-29T17:40:39.404Z,8.35
2018-03-29T17:43:07.802Z,8.50
2018-03-29T17:45:36.147Z,7.23
2018-03-29T17:48:04.589Z,8.17
2018-03-29T17:50:33.859Z,7.15
2018-03-29T17:53:02.304Z,7.63
2018-03-29T17:55:30.693Z,10.80
2018-03-29T17:57:59.113Z,7.10
2018-03-29T18:00:27.678Z,7.10
2018-03-29T18:02:57.785Z,12.17
2018-03-29T18:05:26.230Z,5.73
2018-03-29T18:07:54.707Z,6.17
2018-03-29T18:10:23.094Z,6.20
2018-03-29T18:12:51.679Z,5.55
2018-03-29T18:15:20.270Z,4.97
2018-03-29T18:17:48.717Z,5.65
2018-03-29T18:20:17.274Z,5.93
2018-03-29T18:22:46.519Z,6.03
2018-03-29T18:25:14.914Z,5.97
2018-03-29T18:27:43.286Z,9.33
2018-03-29T18:30:12.013Z,8.40
2018-03-29T18:32:41.242Z,5.57
2018-03-29T18:35:09.760Z,5.30
2018-03-29T18:37:38.163Z,6.80
2018-03-29T18:40:06.553Z,7.17
2018-03-29T18:42:35.754Z,10.45
2018-03-29T18:45:05.082Z,8.73
2018-03-29T18:47:33.584Z,7.47
2018-03-29T18:50:01.969Z,7.77
2018-03-29T18:52:30.477Z,7.43
2018-03-29T18:54:58.861Z,6.23
2018-03-29T18:57:28.206Z,6.72
2018-03-29T18:59:56.622Z,7.30
2018-03-29T19:02:26.296Z,7.93
2018-03-29T19:04:54.849Z,8.47
2018-03-29T19:07:23.217Z,11.70
2018-03-29T19:09:51.734Z,7.77
2018-03-29T19:12:20.296Z,8.43
2018-03-29T19:14:48.642Z,10.77
2018-03-29T19:17:17.902Z,8.90
2018-03-29T19:19:46.272Z,8.73
2018-03-29T19:22:14.721Z,7.93
2018-03-29T19:24:43.284Z,113.60
2018-03-29T19:27:12.948Z,73.67
2018-03-29T19:29:41.282Z,21.23
2018-03-29T19:32:09.758Z,12.18
2018-03-29T19:34:38.454Z,9.05
2018-03-29T19:37:06.823Z,8.37
2018-03-29T19:39:35.329Z,11.67
2018-03-29T19:42:03.698Z,13.30
2018-03-29T19:44:32.329Z,7.93
2018-03-29T19:47:00.677Z,10.33
2018-03-29T19:49:29.032Z,7.15
2018-03-29T19:51:57.409Z,7.55
2018-03-29T19:54:25.993Z,10.97
2018-03-29T19:56:54.386Z,7.70
2018-03-29T19:59:22.837Z,8.00
2018-03-29T20:01:51.220Z,8.03
2018-03-29T20:04:19.564Z,10.40
2018-03-29T20:06:48.117Z,11.87
2018-03-29T20:09:16.653Z,8.00
2018-03-29T20:11:45.201Z,8.02
2018-03-29T20:14:13.662Z,9.23
2018-03-29T20:16:42.071Z,9.45
2018-03-29T20:19:10.410Z,8.30
2018-03-29T20:21:38.910Z,8.83
2018-03-29T20:24:07.357Z,12.43
2018-03-29T20:26:37.146Z,9.77
2018-03-29T20:29:05.748Z,13.20
2018-03-29T20:31:34.122Z,9.67
2018-03-29T20:34:02.492Z,34.40
2018-03-29T20:36:31.044Z,105.27
2018-03-29T20:38:59.493Z,28.10
2018-03-29T20:41:27.957Z,18.50
2018-03-29T20:43:56.474Z,13.40
2018-03-29T20:46:24.958Z,11.13
2018-03-29T20:48:53.459Z,13.82
2018-03-29T20:51:22.840Z,10.73
2018-03-29T20:53:51.398Z,10.25
2018-03-29T20:56:19.912Z,12.15
2018-03-29T20:58:48.475Z,11.40
2018-03-29T21:01:18.471Z,10.77
2018-03-29T21:03:46.969Z,11.50
2018-03-29T21:06:15.541Z,16.43
2018-03-29T21:08:43.970Z,14.67
2018-03-29T21:11:13.154Z,15.83
2018-03-29T21:13:42.385Z,8.53
2018-03-29T21:16:10.954Z,11.20
2018-03-29T21:18:39.472Z,9.25
2018-03-29T21:21:07.952Z,11.52
2018-03-29T21:23:36.415Z,13.93
2018-03-29T21:26:04.788Z,10.97
2018-03-29T21:28:33.253Z,13.43
2018-03-29T21:31:02.682Z,9.68
2018-03-29T21:33:31.142Z,8.87
2018-03-29T21:35:59.642Z,9.87
2018-03-29T21:38:28.268Z,11.53
2018-03-29T21:40:56.628Z,10.52
2018-03-29T21:43:25.001Z,16.30
2018-03-29T21:45:53.474Z,11.40
2018-03-29T21:48:21.800Z,10.33
2018-03-29T21:50:51.029Z,14.47
2018-03-29T21:53:19.591Z,10.23
2018-03-29T21:55:48.766Z,10.02
2018-03-29T21:58:17.081Z,10.27
2018-03-29T22:00:46.280Z,11.60
2018-03-29T22:03:14.615Z,10.10
2018-03-29T22:05:43.064Z,12.40
2018-03-29T22:08:11.362Z,11.60
2018-03-29T22:10:40.000Z,10.40
2018-03-29T22:13:08.339Z,11.90
2018-03-29T22:15:36.818Z,10.40
2018-03-29T22:18:05.132Z,11.37
2018-03-29T22:20:33.471Z,11.27
2018-03-29T22:23:01.823Z,11.03
2018-03-29T22:25:30.255Z,10.73
2018-03-29T22:27:58.619Z,10.53
2018-03-29T22:30:27.236Z,10.90
2018-03-29T22:32:55.564Z,10.13
2018-03-29T22:35:23.921Z,9.52
2018-03-29T22:37:52.247Z,9.93
2018-03-29T22:40:21.363Z,9.90
2018-03-29T22:42:49.689Z,9.47
2018-03-29T22:45:18.042Z,8.20
2018-03-29T22:47:46.816Z,12.60
2018-03-29T22:50:15.202Z,13.27
2018-03-29T22:52:43.523Z,9.20
2018-03-29T22:55:11.960Z,8.98
2018-03-29T22:57:40.312Z,9.87
2018-03-29T23:00:09.848Z,9.03
2018-03-29T23:02:38.406Z,10.50
2018-03-29T23:05:06.719Z,11.95
2018-03-29T23:07:35.066Z,10.83
2018-03-29T23:10:03.599Z,9.27
2018-03-29T23:12:32.108Z,8.00
2018-03-29T23:15:01.461Z,10.37
2018-03-29T23:17:29.863Z,12.03
2018-03-29T23:19:58.228Z,8.02
2018-03-29T23:22:26.583Z,8.67
2018-03-29T23:24:54.947Z,10.33
2018-03-29T23:27:23.342Z,9.07
2018-03-29T23:29:51.697Z,9.23
2018-03-29T23:32:20.100Z,10.43
2018-03-29T23:34:48.547Z,11.10
2018-03-29T23:37:16.882Z,8.80
2018-03-29T23:39:45.164Z,8.20
2018-03-29T23:42:13.537Z,7.60
2018-03-29T23:44:41.990Z,9.17
2018-03-29T23:47:10.427Z,9.03
2018-03-29T23:49:39.704Z,9.13
2018-03-29T23:52:08.141Z,8.85
2018-03-29T23:54:36.426Z,9.97
2018-03-29T23:57:07.752Z,9.37
2018-03-29T23:59:36.049Z,8.50
